Airfield :
LOGIN :

Register | Disclaimer

   EN    FR    IT 

 










Legend :    VFR   Marginal VFR   IFR   Intensive IFR   Very Intensive IFR
Visi :
Ceiling :
>= 8 km
>= 3000ft
5 to 8 km
1000 to 3000 ft
1500m to 5 km
500 to 1000 ft
800 to 1500m
200 to 500 ft
< 800m
< 200 ft
Symbols :   Thunderstorms  Fog  Heavy snow  Heavy precipitations  Wind > 20 kt
SIGMETs :     Misc.  Thunderstorms  Icing  Turbulence  Mountain Waves  Volcanic Ashes







- Airport Elevation : 299 ft
- IATA code : EDM
- Download approach charts


LFRI - La Roche Sur Yon - Les Ajoncs

CURRENT METAR :
  • 250730Z AUTO 01008KT 5000 BR BKN002 05/05 Q1030 BECMG NSC

EXPIRED METARs :
  • 250700Z AUTO 01008KT 1100 R28/1500U BR VV/// 04/04 Q1030 BECMG CAVOK
  • 250630Z AUTO 01008KT 0700 R28/1000U FG VV/// 04/04 Q1030 BECMG CAVOK
  • 250600Z AUTO 01007KT 0700 0650 R28/0900N FG VV/// 04/04 Q1029 TEMPO 0500 FG
  • 250530Z AUTO 36005KT 1900 1100 R28/P2000 BR VV/// 03/03 Q1029 TEMPO 0500 FG
  • 250500Z AUTO 36006KT 4400 BR BKN003 03/02 Q1029

TAF AMD TAF LFRI
Valid from the 25 at 06:00 until the 26 at 06:00 UTC


250648Z 2506/2606 02008KT 0700 FG VV///
BECMG 2507/2509 CAVOK
No reported NOTAMs for that airfield.



MET'MAP, your aeronautical weather chart ! - Copyright ORBIFLY December 2007 - Disclaimer

ORBIFLY MET'MAP TEAM :

Programming & Development : Alexandra Zaïnal
Concept & Development : Baudouin d'Aumeries
Co-Development & Prog : Marc-Olivier Méhu
Technical & hardware support : Manuel Goepfert

Contact : metmap@orbifly.com




SOURCES & CREDITS :

   NOAA